createdAt,value
2023-01-18T00:02:55.369Z,1.85
2023-01-18T00:06:01.589Z,1.45
2023-01-18T00:09:04.157Z,1.50
2023-01-18T00:12:06.828Z,1.03
2023-01-18T00:15:10.040Z,1.43
2023-01-18T00:18:12.483Z,1.80
2023-01-18T00:21:15.112Z,1.48
2023-01-18T00:24:17.443Z,1.00
2023-01-18T00:27:20.774Z,1.60
2023-01-18T00:30:26.875Z,1.65
2023-01-18T00:33:29.962Z,1.40
2023-01-18T00:36:32.992Z,1.10
2023-01-18T00:39:35.495Z,1.00
2023-01-18T00:42:56.794Z,1.35
2023-01-18T00:45:59.504Z,1.55
2023-01-18T00:49:01.958Z,1.80
2023-01-18T00:52:04.596Z,1.40
2023-01-18T00:55:07.876Z,2.03
2023-01-18T00:58:10.305Z,1.27
2023-01-18T01:01:13.892Z,1.85
2023-01-18T01:04:35.236Z,1.40
2023-01-18T01:07:37.670Z,1.52
2023-01-18T01:10:40.314Z,1.75
2023-01-18T01:14:02.428Z,1.25
2023-01-18T01:17:23.592Z,1.73
2023-01-18T01:20:45.285Z,2.43
2023-01-18T01:24:06.318Z,1.23
2023-01-18T01:27:10.606Z,1.63
2023-01-18T01:30:13.264Z,2.80
2023-01-18T01:33:17.905Z,1.80
2023-01-18T01:36:26.070Z,2.05
2023-01-18T01:39:28.970Z,2.28
2023-01-18T01:42:31.436Z,2.45
2023-01-18T01:45:34.148Z,2.03
2023-01-18T01:48:36.822Z,2.70
2023-01-18T01:51:44.851Z,2.10
2023-01-18T01:55:04.712Z,1.95
2023-01-18T01:58:13.109Z,1.88
2023-01-18T02:01:16.540Z,2.23
2023-01-18T02:04:19.296Z,1.95
2023-01-18T02:07:22.904Z,2.55
2023-01-18T02:10:25.412Z,1.63
2023-01-18T02:13:28.085Z,1.97
2023-01-18T02:16:55.249Z,2.13
2023-01-18T02:20:25.886Z,1.67
2023-01-18T02:23:53.844Z,1.13
2023-01-18T02:27:04.378Z,1.20
2023-01-18T02:30:35.153Z,1.47
2023-01-18T02:33:43.489Z,1.52
2023-01-18T02:36:45.789Z,1.52
2023-01-18T02:40:21.880Z,1.48
2023-01-18T02:43:44.371Z,1.50
2023-01-18T02:46:46.911Z,2.50
2023-01-18T02:49:49.654Z,3.03
2023-01-18T02:52:53.683Z,3.25
2023-01-18T02:55:59.425Z,2.43
2023-01-18T02:59:10.202Z,2.58
2023-01-18T03:02:19.286Z,3.90
2023-01-18T03:05:24.581Z,4.97
2023-01-18T03:08:54.119Z,6.53
2023-01-18T03:12:12.022Z,6.37
2023-01-18T03:15:27.540Z,7.18
2023-01-18T03:19:00.003Z,9.30
2023-01-18T03:22:03.123Z,7.75
2023-01-18T03:25:08.196Z,7.20
2023-01-18T03:28:39.615Z,7.95
2023-01-18T03:32:17.296Z,7.35
2023-01-18T03:35:26.777Z,4.70
2023-01-18T03:38:31.281Z,5.27
2023-01-18T03:41:38.909Z,3.60
2023-01-18T03:44:55.881Z,3.13
2023-01-18T03:47:59.389Z,3.47
2023-01-18T03:51:31.477Z,4.55
2023-01-18T03:54:40.514Z,3.50
2023-01-18T03:57:50.317Z,3.67
2023-01-18T04:00:53.511Z,3.33
2023-01-18T04:03:56.033Z,3.90
2023-01-18T04:06:58.529Z,3.33
2023-01-18T04:10:01.439Z,3.80
2023-01-18T04:13:03.895Z,3.88
2023-01-18T04:16:06.655Z,4.13
2023-01-18T04:19:09.178Z,4.55
2023-01-18T04:22:11.867Z,4.20
2023-01-18T04:25:15.214Z,4.47
2023-01-18T04:28:25.415Z,6.32
2023-01-18T04:31:28.353Z,6.53
2023-01-18T04:34:30.917Z,7.50
2023-01-18T04:37:34.149Z,6.27
2023-01-18T04:40:36.583Z,6.60
2023-01-18T04:43:38.968Z,6.55
2023-01-18T04:46:41.494Z,6.72
2023-01-18T04:49:44.684Z,5.83
2023-01-18T04:52:47.297Z,9.00
2023-01-18T04:55:50.161Z,7.43
2023-01-18T04:58:54.475Z,7.20
2023-01-18T05:01:57.211Z,7.72
2023-01-18T05:05:00.234Z,7.83
2023-01-18T05:08:03.174Z,6.82
2023-01-18T05:11:08.209Z,7.35
2023-01-18T05:14:10.661Z,8.27
2023-01-18T05:17:13.133Z,5.70
2023-01-18T05:20:15.806Z,5.80
2023-01-18T05:23:18.258Z,5.30
2023-01-18T05:26:23.360Z,5.68
2023-01-18T05:29:25.970Z,6.88
2023-01-18T05:32:28.560Z,8.67
2023-01-18T05:35:32.272Z,7.47
2023-01-18T05:38:34.852Z,10.30
2023-01-18T05:41:37.422Z,12.90
2023-01-18T05:44:39.765Z,8.70
2023-01-18T05:47:42.480Z,8.60
2023-01-18T05:50:47.034Z,8.30
2023-01-18T05:53:49.641Z,8.47
2023-01-18T05:56:52.082Z,11.90
2023-01-18T05:59:54.653Z,8.18
2023-01-18T06:02:57.313Z,7.90
2023-01-18T06:05:59.975Z,10.35
2023-01-18T06:09:03.471Z,8.43
2023-01-18T06:12:06.543Z,9.70
2023-01-18T06:15:09.920Z,10.50
2023-01-18T06:18:12.420Z,10.27
2023-01-18T06:21:15.371Z,8.87
2023-01-18T06:24:17.803Z,8.23
2023-01-18T06:27:20.230Z,7.30
2023-01-18T06:30:22.869Z,6.38
2023-01-18T06:33:25.319Z,6.00
2023-01-18T06:36:29.865Z,5.45
2023-01-18T06:39:32.446Z,4.40
2023-01-18T06:42:35.027Z,4.57
2023-01-18T06:45:37.636Z,3.33
2023-01-18T06:48:40.164Z,4.50
2023-01-18T06:51:47.259Z,5.57
2023-01-18T06:54:49.795Z,6.80
2023-01-18T06:57:52.496Z,7.63
2023-01-18T07:00:59.650Z,4.73
2023-01-18T07:04:02.241Z,9.05
2023-01-18T07:07:04.741Z,4.57
2023-01-18T07:10:08.056Z,3.42
2023-01-18T07:13:10.635Z,3.63
2023-01-18T07:16:17.560Z,2.88
2023-01-18T07:19:20.369Z,1.50
2023-01-18T07:22:23.514Z,2.22
2023-01-18T07:25:27.608Z,2.77
2023-01-18T07:28:31.058Z,3.20
2023-01-18T07:31:34.151Z,2.33
2023-01-18T07:34:37.034Z,3.13
2023-01-18T07:37:39.487Z,2.17
2023-01-18T07:40:42.583Z,1.85
2023-01-18T07:43:45.441Z,3.25
2023-01-18T07:46:47.891Z,3.00
2023-01-18T07:49:50.755Z,3.73
2023-01-18T07:52:53.271Z,3.20
2023-01-18T07:55:59.817Z,4.72
2023-01-18T07:59:02.661Z,2.97
2023-01-18T08:02:05.092Z,3.25
2023-01-18T08:05:09.965Z,3.93
2023-01-18T08:08:14.955Z,2.92
2023-01-18T08:11:17.801Z,4.32
2023-01-18T08:14:20.926Z,3.60
2023-01-18T08:17:23.421Z,3.70
2023-01-18T08:20:25.917Z,2.63
2023-01-18T08:23:28.627Z,2.45
2023-01-18T08:26:31.374Z,1.92
2023-01-18T08:29:33.813Z,2.90
2023-01-18T08:32:36.263Z,1.40
2023-01-18T08:35:47.324Z,3.17
2023-01-18T08:38:51.866Z,2.60
2023-01-18T08:41:54.452Z,2.47
2023-01-18T08:44:56.976Z,2.27
2023-01-18T08:48:02.610Z,3.08
2023-01-18T08:51:05.447Z,3.17
2023-01-18T08:54:08.496Z,3.20
2023-01-18T08:57:11.021Z,2.47
2023-01-18T09:00:14.428Z,2.20
2023-01-18T09:03:23.358Z,2.60
2023-01-18T09:06:30.033Z,2.47
2023-01-18T09:09:32.765Z,2.00
2023-01-18T09:12:35.733Z,2.45
2023-01-18T09:15:38.815Z,3.38
2023-01-18T09:18:41.290Z,2.40
2023-01-18T09:21:45.989Z,2.40
2023-01-18T09:24:48.634Z,3.75
2023-01-18T09:27:51.554Z,2.13
2023-01-18T09:30:54.090Z,2.85
2023-01-18T09:34:09.591Z,5.70
2023-01-18T09:37:20.505Z,4.00
2023-01-18T09:40:27.254Z,3.67
2023-01-18T09:43:39.179Z,2.30
2023-01-18T09:46:43.057Z,3.60
2023-01-18T09:49:55.085Z,3.33
2023-01-18T09:53:21.920Z,4.57
2023-01-18T09:56:39.464Z,3.08
2023-01-18T10:00:04.980Z,3.10
2023-01-18T10:03:15.294Z,3.67
2023-01-18T10:06:37.077Z,2.95
2023-01-18T10:09:44.371Z,3.30
2023-01-18T10:12:58.104Z,4.23
2023-01-18T10:16:03.263Z,3.90
2023-01-18T10:19:16.364Z,4.05
2023-01-18T10:22:33.999Z,4.95
2023-01-18T10:25:46.995Z,4.55
2023-01-18T10:29:01.249Z,4.10
2023-01-18T10:32:10.865Z,3.63
2023-01-18T10:35:29.778Z,3.35
2023-01-18T10:38:32.474Z,3.17
2023-01-18T10:41:40.743Z,6.80
2023-01-18T10:44:43.216Z,3.25
2023-01-18T10:47:50.345Z,4.07
2023-01-18T10:50:59.515Z,4.40
2023-01-18T10:54:22.254Z,2.83
2023-01-18T10:57:29.974Z,3.20
2023-01-18T11:00:36.003Z,3.25
2023-01-18T11:03:45.890Z,3.45
2023-01-18T11:07:03.185Z,3.88
2023-01-18T11:10:09.730Z,4.57
2023-01-18T11:13:32.499Z,2.73
2023-01-18T11:16:36.044Z,3.47
2023-01-18T11:19:39.443Z,4.18
2023-01-18T11:22:55.149Z,4.03
2023-01-18T11:26:17.321Z,2.97
2023-01-18T11:29:22.283Z,4.40
2023-01-18T11:32:27.556Z,4.10
2023-01-18T11:35:37.308Z,5.50
2023-01-18T11:38:41.583Z,5.97
2023-01-18T11:41:44.176Z,4.57
2023-01-18T11:44:55.455Z,4.03
2023-01-18T11:48:13.620Z,4.25
2023-01-18T11:51:24.961Z,4.10
2023-01-18T11:54:27.296Z,2.45
2023-01-18T11:57:29.788Z,4.77
2023-01-18T12:00:46.998Z,2.93
2023-01-18T12:03:59.042Z,2.72
2023-01-18T12:07:32.824Z,2.70
2023-01-18T12:11:02.525Z,3.60
2023-01-18T12:14:32.990Z,3.53
2023-01-18T12:17:46.181Z,3.13
2023-01-18T12:21:08.908Z,2.38
2023-01-18T12:24:24.621Z,3.20
2023-01-18T12:27:32.824Z,4.38
2023-01-18T12:30:50.841Z,3.07
2023-01-18T12:34:20.706Z,4.03
2023-01-18T12:38:01.094Z,3.13
2023-01-18T12:41:11.166Z,3.10
2023-01-18T12:44:32.126Z,2.75
2023-01-18T12:47:40.948Z,3.70
2023-01-18T12:50:47.014Z,3.47
2023-01-18T12:54:12.398Z,2.88
2023-01-18T12:57:17.444Z,2.92
2023-01-18T13:00:25.268Z,4.88
2023-01-18T13:03:39.336Z,3.23
2023-01-18T13:06:43.133Z,2.97
2023-01-18T13:09:50.622Z,3.17
2023-01-18T13:12:55.388Z,2.35
2023-01-18T13:16:16.936Z,2.85
2023-01-18T13:19:29.369Z,2.53
2023-01-18T13:22:43.749Z,4.07
2023-01-18T13:26:27.103Z,2.13
2023-01-18T13:29:30.486Z,3.72
2023-01-18T13:32:37.670Z,2.92
2023-01-18T13:35:51.047Z,4.13
2023-01-18T13:38:57.555Z,4.37
2023-01-18T13:42:10.032Z,3.25
2023-01-18T13:45:17.247Z,2.00
2023-01-18T13:48:41.580Z,2.53
2023-01-18T13:51:47.782Z,2.60
2023-01-18T13:55:01.116Z,4.07
2023-01-18T13:58:03.830Z,5.82
2023-01-18T14:01:18.339Z,3.47
2023-01-18T14:04:24.379Z,2.40
2023-01-18T14:07:27.539Z,6.00
2023-01-18T14:10:36.388Z,4.00
2023-01-18T14:13:44.608Z,3.30
2023-01-18T14:17:14.009Z,4.13
2023-01-18T14:21:05.212Z,2.20
2023-01-18T14:24:19.941Z,1.90
2023-01-18T14:27:25.496Z,3.20
2023-01-18T14:30:31.959Z,6.05
2023-01-18T14:33:41.338Z,3.63
2023-01-18T14:36:44.192Z,5.32
2023-01-18T14:39:47.676Z,3.87
2023-01-18T14:42:57.734Z,4.33
2023-01-18T14:46:05.619Z,7.65
2023-01-18T14:49:15.678Z,4.75
2023-01-18T14:52:18.851Z,4.55
2023-01-18T14:55:33.644Z,9.97
2023-01-18T14:58:44.686Z,11.60
2023-01-18T15:01:56.885Z,11.68
2023-01-18T15:05:17.185Z,10.50
2023-01-18T15:08:20.183Z,13.10
2023-01-18T15:11:24.466Z,15.27
2023-01-18T15:14:30.926Z,15.93
2023-01-18T15:17:35.972Z,15.40
2023-01-18T15:20:58.353Z,19.90
2023-01-18T15:24:12.475Z,19.42
2023-01-18T15:27:18.433Z,15.30
2023-01-18T15:30:23.430Z,16.90
2023-01-18T15:33:27.469Z,14.93
2023-01-18T15:36:29.950Z,15.65
2023-01-18T15:39:33.941Z,18.52
2023-01-18T15:42:42.785Z,16.30
2023-01-18T15:45:50.130Z,19.93
2023-01-18T15:48:56.573Z,26.00
2023-01-18T15:51:59.205Z,22.90
2023-01-18T15:55:07.114Z,22.60
2023-01-18T15:58:42.884Z,24.07
2023-01-18T16:01:49.505Z,26.13
2023-01-18T16:05:08.949Z,29.70
2023-01-18T16:08:22.650Z,30.23
2023-01-18T16:11:33.460Z,31.98
2023-01-18T16:14:38.475Z,36.87
2023-01-18T16:17:43.743Z,30.83
2023-01-18T16:20:46.716Z,28.55
2023-01-18T16:23:52.619Z,29.77
2023-01-18T16:26:57.059Z,25.35
2023-01-18T16:30:17.499Z,33.80
2023-01-18T16:33:21.714Z,29.90
2023-01-18T16:36:25.781Z,30.73
2023-01-18T16:39:30.491Z,42.80
2023-01-18T16:42:54.376Z,48.60
2023-01-18T16:45:59.139Z,50.43
2023-01-18T16:49:02.232Z,47.83
2023-01-18T16:52:08.456Z,49.13
2023-01-18T16:55:15.288Z,47.05
2023-01-18T16:58:19.274Z,38.25
2023-01-18T17:01:21.932Z,25.57
2023-01-18T17:04:26.770Z,20.83
2023-01-18T17:07:29.243Z,21.33
2023-01-18T17:10:43.831Z,18.08
2023-01-18T17:13:47.822Z,17.63
2023-01-18T17:16:51.052Z,14.70
2023-01-18T17:19:54.397Z,16.33
2023-01-18T17:22:57.641Z,17.90
2023-01-18T17:26:00.603Z,15.43
2023-01-18T17:29:04.261Z,9.77
2023-01-18T17:32:08.141Z,9.83
2023-01-18T17:35:10.931Z,9.57
2023-01-18T17:38:23.298Z,8.65
2023-01-18T17:41:29.091Z,9.75
2023-01-18T17:44:37.372Z,12.50
2023-01-18T17:47:42.698Z,12.10
2023-01-18T17:50:45.495Z,10.63
2023-01-18T17:53:48.205Z,11.93
2023-01-18T17:56:51.420Z,17.33
2023-01-18T17:59:55.617Z,13.00
2023-01-18T18:02:59.381Z,11.10
2023-01-18T18:06:03.923Z,12.07
2023-01-18T18:09:06.668Z,10.98
2023-01-18T18:12:12.576Z,11.75
2023-01-18T18:18:35.038Z,15.47
2023-01-18T18:21:37.697Z,29.92
2023-01-18T18:24:40.601Z,35.92
2023-01-18T18:27:46.501Z,32.47
2023-01-18T18:30:53.833Z,35.47
2023-01-18T18:33:56.522Z,30.93
2023-01-18T18:36:59.828Z,33.67
2023-01-18T18:43:24.575Z,34.00
2023-01-18T18:49:47.644Z,36.87
2023-01-18T18:52:50.492Z,34.53
2023-01-18T18:55:59.478Z,36.97
2023-01-18T18:59:02.198Z,38.28
2023-01-18T19:02:04.862Z,38.03
2023-01-18T19:05:08.939Z,45.43
2023-01-18T19:08:11.710Z,38.22
2023-01-18T19:11:15.591Z,36.92
2023-01-18T19:14:18.689Z,22.90
2023-01-18T19:17:29.682Z,19.80
2023-01-18T19:20:33.953Z,16.93
2023-01-18T19:23:36.725Z,14.25
2023-01-18T19:26:39.394Z,12.30
2023-01-18T19:29:42.023Z,11.90
2023-01-18T19:32:46.672Z,14.13
2023-01-18T19:35:49.386Z,12.60
2023-01-18T19:38:59.352Z,11.13
2023-01-18T19:42:02.844Z,11.05
2023-01-18T19:45:08.070Z,12.15
2023-01-18T19:48:11.055Z,13.03
2023-01-18T19:51:22.427Z,12.65
2023-01-18T19:54:25.525Z,17.48
2023-01-18T19:57:28.923Z,13.52
2023-01-18T20:00:31.770Z,13.27
2023-01-18T20:03:37.436Z,12.67
2023-01-18T20:06:42.302Z,11.63
2023-01-18T20:09:45.287Z,12.88
2023-01-18T20:12:49.383Z,10.35
2023-01-18T20:15:54.634Z,10.87
2023-01-18T20:18:57.398Z,10.48
2023-01-18T20:22:00.490Z,10.07
2023-01-18T20:25:04.375Z,9.77
2023-01-18T20:28:07.020Z,12.10
2023-01-18T20:31:10.325Z,10.00
2023-01-18T20:34:13.004Z,12.73
2023-01-18T20:37:16.428Z,13.25
2023-01-18T20:40:19.407Z,15.10
2023-01-18T20:43:22.110Z,11.13
2023-01-18T20:46:24.804Z,14.20
2023-01-18T20:49:37.581Z,12.43
2023-01-18T20:52:41.439Z,12.55
2023-01-18T20:55:44.060Z,13.07
2023-01-18T20:58:46.567Z,13.97
2023-01-18T21:01:49.657Z,14.50
2023-01-18T21:04:53.031Z,16.02
2023-01-18T21:07:55.548Z,15.35
2023-01-18T21:10:58.037Z,15.50
2023-01-18T21:14:00.890Z,15.10
2023-01-18T21:17:03.402Z,25.38
2023-01-18T21:20:06.201Z,18.30
2023-01-18T21:23:09.055Z,15.23
2023-01-18T21:26:12.725Z,15.93
2023-01-18T21:29:15.202Z,19.90
2023-01-18T21:32:17.789Z,21.55
2023-01-18T21:35:20.307Z,19.80
2023-01-18T21:38:23.356Z,19.77
2023-01-18T21:41:44.750Z,20.60
2023-01-18T21:45:06.075Z,19.20
2023-01-18T21:48:08.848Z,16.33
2023-01-18T21:51:30.003Z,18.58
2023-01-18T21:54:32.443Z,17.77
2023-01-18T21:57:36.358Z,18.10
2023-01-18T22:00:39.925Z,20.52
2023-01-18T22:03:43.165Z,18.20
2023-01-18T22:06:45.995Z,18.05
2023-01-18T22:10:03.118Z,20.93
2023-01-18T22:13:06.873Z,20.38
2023-01-18T22:16:09.573Z,18.98
2023-01-18T22:19:12.316Z,21.40
2023-01-18T22:22:15.046Z,20.07
2023-01-18T22:25:17.961Z,20.60
2023-01-18T22:28:20.668Z,21.35
2023-01-18T22:31:23.728Z,21.35
2023-01-18T22:34:26.165Z,20.60
2023-01-18T22:37:28.831Z,20.63
2023-01-18T22:40:32.269Z,19.52
2023-01-18T22:43:35.991Z,20.85
2023-01-18T22:46:38.560Z,18.55
2023-01-18T22:49:41.395Z,19.27
2023-01-18T22:52:43.930Z,19.53
2023-01-18T22:55:47.550Z,18.48
2023-01-18T22:58:51.145Z,21.80
2023-01-18T23:01:53.583Z,19.33
2023-01-18T23:04:56.352Z,21.92
2023-01-18T23:07:59.087Z,21.70
2023-01-18T23:11:01.749Z,19.80
2023-01-18T23:14:23.592Z,21.83
2023-01-18T23:17:42.240Z,17.75
2023-01-18T23:20:44.878Z,18.73
2023-01-18T23:23:48.135Z,17.50
2023-01-18T23:26:51.502Z,19.33
2023-01-18T23:29:57.273Z,22.17
2023-01-18T23:32:59.914Z,19.42
2023-01-18T23:36:02.686Z,18.07
2023-01-18T23:39:24.377Z,19.17
2023-01-18T23:42:45.488Z,19.42
2023-01-18T23:46:06.395Z,19.55
2023-01-18T23:49:27.223Z,18.48
2023-01-18T23:52:48.223Z,16.60
2023-01-18T23:55:52.848Z,18.73
2023-01-18T23:58:56.589Z,16.63
